sensor_id;sensor_type;location;lat;lon;timestamp;P1;durP1;ratioP1;P2;durP2;ratioP2
3549;SDS011;45572;48.804;8.330;2022-11-11T00:00:59;7.80;;;4.07;;
3549;SDS011;45572;48.804;8.330;2022-11-11T00:03:49;3.50;;;3.15;;
3549;SDS011;45572;48.804;8.330;2022-11-11T00:06:41;5.80;;;3.85;;
3549;SDS011;45572;48.804;8.330;2022-11-11T00:09:28;8.77;;;3.55;;
3549;SDS011;45572;48.804;8.330;2022-11-11T00:12:16;4.43;;;2.85;;
3549;SDS011;45572;48.804;8.330;2022-11-11T00:15:04;7.05;;;3.10;;
3549;SDS011;45572;48.804;8.330;2022-11-11T00:17:53;5.13;;;3.17;;
3549;SDS011;45572;48.804;8.330;2022-11-11T00:20:58;6.70;;;3.10;;
3549;SDS011;45572;48.804;8.330;2022-11-11T00:23:59;10.02;;;3.60;;
3549;SDS011;45572;48.804;8.330;2022-11-11T00:27:01;7.03;;;3.65;;
3549;SDS011;45572;48.804;8.330;2022-11-11T00:29:50;3.60;;;2.17;;
3549;SDS011;45572;48.804;8.330;2022-11-11T00:32:38;3.47;;;2.13;;
3549;SDS011;45572;48.804;8.330;2022-11-11T00:35:26;6.15;;;3.13;;
3549;SDS011;45572;48.804;8.330;2022-11-11T00:38:29;5.10;;;2.05;;
3549;SDS011;45572;48.804;8.330;2022-11-11T00:41:30;2.55;;;1.52;;
3549;SDS011;45572;48.804;8.330;2022-11-11T00:44:18;2.72;;;1.90;;
3549;SDS011;45572;48.804;8.330;2022-11-11T00:47:06;4.57;;;1.98;;
3549;SDS011;45572;48.804;8.330;2022-11-11T00:50:10;7.13;;;2.10;;
3549;SDS011;45572;48.804;8.330;2022-11-11T00:53:14;3.55;;;2.10;;
3549;SDS011;45572;48.804;8.330;2022-11-11T00:56:12;5.28;;;1.70;;
3549;SDS011;45572;48.804;8.330;2022-11-11T00:59:00;4.32;;;2.25;;
3549;SDS011;45572;48.804;8.330;2022-11-11T01:01:48;3.97;;;1.98;;
3549;SDS011;45572;48.804;8.330;2022-11-11T01:04:36;3.15;;;2.03;;
3549;SDS011;45572;48.804;8.330;2022-11-11T01:07:23;5.35;;;2.38;;
3549;SDS011;45572;48.804;8.330;2022-11-11T01:10:11;13.57;;;2.15;;
3549;SDS011;45572;48.804;8.330;2022-11-11T01:13:00;4.55;;;2.10;;
3549;SDS011;45572;48.804;8.330;2022-11-11T01:15:59;3.70;;;2.42;;
3549;SDS011;45572;48.804;8.330;2022-11-11T01:18:48;6.22;;;1.90;;
3549;SDS011;45572;48.804;8.330;2022-11-11T01:21:37;2.40;;;1.60;;
3549;SDS011;45572;48.804;8.330;2022-11-11T01:24:25;5.45;;;2.78;;
3549;SDS011;45572;48.804;8.330;2022-11-11T01:27:13;4.35;;;2.63;;
3549;SDS011;45572;48.804;8.330;2022-11-11T01:30:02;6.80;;;2.42;;
3549;SDS011;45572;48.804;8.330;2022-11-11T01:32:50;4.93;;;2.70;;
3549;SDS011;45572;48.804;8.330;2022-11-11T01:35:38;5.32;;;2.00;;
3549;SDS011;45572;48.804;8.330;2022-11-11T01:38:27;5.40;;;2.63;;
3549;SDS011;45572;48.804;8.330;2022-11-11T01:41:17;3.80;;;2.55;;
3549;SDS011;45572;48.804;8.330;2022-11-11T01:47:29;8.98;;;2.65;;
3549;SDS011;45572;48.804;8.330;2022-11-11T01:50:58;5.15;;;2.28;;
3549;SDS011;45572;48.804;8.330;2022-11-11T01:53:47;3.20;;;2.40;;
3549;SDS011;45572;48.804;8.330;2022-11-11T01:56:38;4.22;;;1.90;;
3549;SDS011;45572;48.804;8.330;2022-11-11T01:59:28;3.70;;;2.58;;
3549;SDS011;45572;48.804;8.330;2022-11-11T02:02:19;4.82;;;2.40;;
3549;SDS011;45572;48.804;8.330;2022-11-11T02:05:14;2.85;;;2.17;;
3549;SDS011;45572;48.804;8.330;2022-11-11T02:08:18;3.97;;;1.90;;
3549;SDS011;45572;48.804;8.330;2022-11-11T02:11:19;4.60;;;2.25;;
3549;SDS011;45572;48.804;8.330;2022-11-11T02:14:23;7.28;;;2.00;;
3549;SDS011;45572;48.804;8.330;2022-11-11T02:17:26;4.93;;;1.85;;
3549;SDS011;45572;48.804;8.330;2022-11-11T02:20:20;2.38;;;1.45;;
3549;SDS011;45572;48.804;8.330;2022-11-11T02:23:11;11.68;;;1.73;;
3549;SDS011;45572;48.804;8.330;2022-11-11T02:26:04;2.65;;;1.55;;
3549;SDS011;45572;48.804;8.330;2022-11-11T02:28:55;5.85;;;2.20;;
3549;SDS011;45572;48.804;8.330;2022-11-11T02:31:44;3.50;;;2.20;;
3549;SDS011;45572;48.804;8.330;2022-11-11T02:34:32;3.95;;;1.40;;
3549;SDS011;45572;48.804;8.330;2022-11-11T02:37:21;3.92;;;2.17;;
3549;SDS011;45572;48.804;8.330;2022-11-11T02:40:11;4.90;;;2.78;;
3549;SDS011;45572;48.804;8.330;2022-11-11T02:43:02;2.20;;;1.52;;
3549;SDS011;45572;48.804;8.330;2022-11-11T02:45:50;2.75;;;2.00;;
3549;SDS011;45572;48.804;8.330;2022-11-11T02:48:38;2.25;;;2.05;;
3549;SDS011;45572;48.804;8.330;2022-11-11T02:51:26;4.97;;;1.60;;
3549;SDS011;45572;48.804;8.330;2022-11-11T02:54:13;2.13;;;1.30;;
3549;SDS011;45572;48.804;8.330;2022-11-11T02:57:01;1.77;;;1.23;;
3549;SDS011;45572;48.804;8.330;2022-11-11T02:59:58;2.58;;;1.63;;
3549;SDS011;45572;48.804;8.330;2022-11-11T03:02:47;4.25;;;1.70;;
3549;SDS011;45572;48.804;8.330;2022-11-11T03:05:35;3.35;;;1.55;;
3549;SDS011;45572;48.804;8.330;2022-11-11T03:08:23;3.40;;;1.73;;
3549;SDS011;45572;48.804;8.330;2022-11-11T03:11:11;1.90;;;1.20;;
3549;SDS011;45572;48.804;8.330;2022-11-11T03:13:59;2.10;;;1.45;;
3549;SDS011;45572;48.804;8.330;2022-11-11T03:16:48;6.32;;;1.13;;
3549;SDS011;45572;48.804;8.330;2022-11-11T03:19:51;1.25;;;0.95;;
3549;SDS011;45572;48.804;8.330;2022-11-11T03:22:59;4.30;;;1.95;;
3549;SDS011;45572;48.804;8.330;2022-11-11T03:25:48;1.95;;;1.15;;
3549;SDS011;45572;48.804;8.330;2022-11-11T03:28:43;5.30;;;1.50;;
3549;SDS011;45572;48.804;8.330;2022-11-11T03:31:30;2.42;;;1.08;;
3549;SDS011;45572;48.804;8.330;2022-11-11T03:34:19;3.60;;;1.65;;
3549;SDS011;45572;48.804;8.330;2022-11-11T03:37:09;2.15;;;0.90;;
3549;SDS011;45572;48.804;8.330;2022-11-11T03:40:11;2.65;;;1.27;;
3549;SDS011;45572;48.804;8.330;2022-11-11T03:42:59;4.13;;;1.70;;
3549;SDS011;45572;48.804;8.330;2022-11-11T03:45:50;2.50;;;1.10;;
3549;SDS011;45572;48.804;8.330;2022-11-11T03:48:39;2.65;;;1.30;;
3549;SDS011;45572;48.804;8.330;2022-11-11T03:51:28;2.47;;;1.42;;
3549;SDS011;45572;48.804;8.330;2022-11-11T03:54:16;3.92;;;1.10;;
3549;SDS011;45572;48.804;8.330;2022-11-11T03:57:03;7.20;;;1.90;;
3549;SDS011;45572;48.804;8.330;2022-11-11T04:00:05;7.45;;;1.60;;
3549;SDS011;45572;48.804;8.330;2022-11-11T04:03:00;2.63;;;1.50;;
3549;SDS011;45572;48.804;8.330;2022-11-11T04:06:03;3.55;;;1.75;;
3549;SDS011;45572;48.804;8.330;2022-11-11T04:09:07;3.17;;;1.40;;
3549;SDS011;45572;48.804;8.330;2022-11-11T04:12:09;3.85;;;1.60;;
3549;SDS011;45572;48.804;8.330;2022-11-11T04:14:57;1.65;;;1.50;;
3549;SDS011;45572;48.804;8.330;2022-11-11T04:17:58;7.53;;;2.03;;
3549;SDS011;45572;48.804;8.330;2022-11-11T04:20:49;11.00;;;2.10;;
3549;SDS011;45572;48.804;8.330;2022-11-11T04:23:51;6.53;;;1.70;;
3549;SDS011;45572;48.804;8.330;2022-11-11T04:26:40;2.55;;;1.40;;
3549;SDS011;45572;48.804;8.330;2022-11-11T04:29:26;3.35;;;1.48;;
3549;SDS011;45572;48.804;8.330;2022-11-11T04:32:15;5.53;;;1.60;;
3549;SDS011;45572;48.804;8.330;2022-11-11T04:35:18;5.57;;;2.15;;
3549;SDS011;45572;48.804;8.330;2022-11-11T04:38:06;5.43;;;1.90;;
3549;SDS011;45572;48.804;8.330;2022-11-11T04:41:08;2.20;;;1.80;;
3549;SDS011;45572;48.804;8.330;2022-11-11T04:43:59;3.25;;;1.92;;
3549;SDS011;45572;48.804;8.330;2022-11-11T04:47:01;3.33;;;1.88;;
3549;SDS011;45572;48.804;8.330;2022-11-11T04:49:48;6.15;;;1.73;;
3549;SDS011;45572;48.804;8.330;2022-11-11T04:52:36;1.67;;;1.38;;
3549;SDS011;45572;48.804;8.330;2022-11-11T04:55:24;4.75;;;2.05;;
3549;SDS011;45572;48.804;8.330;2022-11-11T04:58:26;1.75;;;1.50;;
3549;SDS011;45572;48.804;8.330;2022-11-11T05:01:16;3.30;;;2.28;;
3549;SDS011;45572;48.804;8.330;2022-11-11T05:04:24;4.43;;;2.00;;
3549;SDS011;45572;48.804;8.330;2022-11-11T05:07:11;9.20;;;1.27;;
3549;SDS011;45572;48.804;8.330;2022-11-11T05:10:13;1.73;;;1.42;;
3549;SDS011;45572;48.804;8.330;2022-11-11T05:13:01;1.73;;;1.40;;
3549;SDS011;45572;48.804;8.330;2022-11-11T05:16:09;2.83;;;1.88;;
3549;SDS011;45572;48.804;8.330;2022-11-11T05:19:18;1.88;;;1.50;;
3549;SDS011;45572;48.804;8.330;2022-11-11T05:22:20;3.85;;;1.48;;
3549;SDS011;45572;48.804;8.330;2022-11-11T05:25:10;2.20;;;1.40;;
3549;SDS011;45572;48.804;8.330;2022-11-11T05:28:12;1.92;;;1.52;;
3549;SDS011;45572;48.804;8.330;2022-11-11T05:31:00;2.58;;;1.50;;
3549;SDS011;45572;48.804;8.330;2022-11-11T05:33:48;4.40;;;1.40;;
3549;SDS011;45572;48.804;8.330;2022-11-11T05:36:37;5.10;;;1.92;;
3549;SDS011;45572;48.804;8.330;2022-11-11T05:39:24;2.88;;;1.42;;
3549;SDS011;45572;48.804;8.330;2022-11-11T05:42:12;4.70;;;1.92;;
3549;SDS011;45572;48.804;8.330;2022-11-11T05:45:00;3.60;;;1.90;;
3549;SDS011;45572;48.804;8.330;2022-11-11T05:47:48;2.20;;;1.58;;
3549;SDS011;45572;48.804;8.330;2022-11-11T05:50:36;5.18;;;1.60;;
3549;SDS011;45572;48.804;8.330;2022-11-11T05:53:28;2.67;;;1.45;;
3549;SDS011;45572;48.804;8.330;2022-11-11T05:56:16;2.35;;;1.40;;
3549;SDS011;45572;48.804;8.330;2022-11-11T05:59:04;2.00;;;1.50;;
3549;SDS011;45572;48.804;8.330;2022-11-11T06:01:52;2.50;;;1.42;;
3549;SDS011;45572;48.804;8.330;2022-11-11T06:04:40;2.20;;;1.70;;
3549;SDS011;45572;48.804;8.330;2022-11-11T06:07:29;5.47;;;4.22;;
3549;SDS011;45572;48.804;8.330;2022-11-11T06:10:18;2.75;;;1.80;;
3549;SDS011;45572;48.804;8.330;2022-11-11T06:13:20;4.47;;;1.95;;
3549;SDS011;45572;48.804;8.330;2022-11-11T06:16:08;3.17;;;2.00;;
3549;SDS011;45572;48.804;8.330;2022-11-11T06:18:56;3.53;;;2.25;;
3549;SDS011;45572;48.804;8.330;2022-11-11T06:21:45;2.85;;;1.63;;
3549;SDS011;45572;48.804;8.330;2022-11-11T06:24:47;4.43;;;1.95;;
3549;SDS011;45572;48.804;8.330;2022-11-11T06:27:56;3.28;;;1.60;;
3549;SDS011;45572;48.804;8.330;2022-11-11T06:30:44;4.47;;;1.85;;
3549;SDS011;45572;48.804;8.330;2022-11-11T06:33:36;2.08;;;1.50;;
3549;SDS011;45572;48.804;8.330;2022-11-11T06:36:25;5.13;;;2.10;;
3549;SDS011;45572;48.804;8.330;2022-11-11T06:39:12;5.45;;;2.13;;
3549;SDS011;45572;48.804;8.330;2022-11-11T06:42:00;2.95;;;2.10;;
3549;SDS011;45572;48.804;8.330;2022-11-11T06:44:50;3.05;;;2.30;;
3549;SDS011;45572;48.804;8.330;2022-11-11T06:47:38;3.10;;;2.42;;
3549;SDS011;45572;48.804;8.330;2022-11-11T06:50:25;5.40;;;2.65;;
3549;SDS011;45572;48.804;8.330;2022-11-11T06:53:14;4.78;;;2.55;;
3549;SDS011;45572;48.804;8.330;2022-11-11T06:56:03;4.90;;;2.97;;
3549;SDS011;45572;48.804;8.330;2022-11-11T06:58:52;4.00;;;2.65;;
3549;SDS011;45572;48.804;8.330;2022-11-11T07:01:41;3.90;;;2.25;;
3549;SDS011;45572;48.804;8.330;2022-11-11T07:04:29;7.88;;;2.97;;
3549;SDS011;45572;48.804;8.330;2022-11-11T07:07:16;4.35;;;3.05;;
3549;SDS011;45572;48.804;8.330;2022-11-11T07:10:07;5.63;;;2.58;;
3549;SDS011;45572;48.804;8.330;2022-11-11T07:12:55;6.60;;;3.40;;
3549;SDS011;45572;48.804;8.330;2022-11-11T07:15:43;4.07;;;2.97;;
3549;SDS011;45572;48.804;8.330;2022-11-11T07:18:32;4.28;;;2.55;;
3549;SDS011;45572;48.804;8.330;2022-11-11T07:21:20;4.20;;;2.30;;
3549;SDS011;45572;48.804;8.330;2022-11-11T07:24:08;7.78;;;2.90;;
3549;SDS011;45572;48.804;8.330;2022-11-11T07:26:56;4.45;;;2.50;;
3549;SDS011;45572;48.804;8.330;2022-11-11T07:29:44;4.30;;;2.83;;
3549;SDS011;45572;48.804;8.330;2022-11-11T07:32:33;8.18;;;3.08;;
3549;SDS011;45572;48.804;8.330;2022-11-11T07:35:23;5.25;;;3.30;;
3549;SDS011;45572;48.804;8.330;2022-11-11T07:38:10;5.53;;;3.67;;
3549;SDS011;45572;48.804;8.330;2022-11-11T07:40:58;4.20;;;2.60;;
3549;SDS011;45572;48.804;8.330;2022-11-11T07:43:46;4.88;;;3.03;;
3549;SDS011;45572;48.804;8.330;2022-11-11T07:46:34;5.35;;;3.15;;
3549;SDS011;45572;48.804;8.330;2022-11-11T07:49:24;7.50;;;3.33;;
3549;SDS011;45572;48.804;8.330;2022-11-11T07:52:13;7.55;;;3.38;;
3549;SDS011;45572;48.804;8.330;2022-11-11T07:55:01;8.52;;;3.88;;
3549;SDS011;45572;48.804;8.330;2022-11-11T07:57:50;1.60;;;1.50;;
3549;SDS011;45572;48.804;8.330;2022-11-11T08:00:38;4.75;;;3.30;;
3549;SDS011;45572;48.804;8.330;2022-11-11T08:03:26;6.55;;;4.28;;
3549;SDS011;45572;48.804;8.330;2022-11-11T08:06:13;3.90;;;2.15;;
3549;SDS011;45572;48.804;8.330;2022-11-11T08:09:03;10.40;;;3.58;;
3549;SDS011;45572;48.804;8.330;2022-11-11T08:11:52;4.60;;;3.78;;
3549;SDS011;45572;48.804;8.330;2022-11-11T08:14:53;5.28;;;3.75;;
3549;SDS011;45572;48.804;8.330;2022-11-11T08:17:41;6.65;;;4.25;;
3549;SDS011;45572;48.804;8.330;2022-11-11T08:20:29;7.57;;;4.55;;
3549;SDS011;45572;48.804;8.330;2022-11-11T08:23:16;7.82;;;4.43;;
3549;SDS011;45572;48.804;8.330;2022-11-11T08:26:31;6.93;;;3.45;;
3549;SDS011;45572;48.804;8.330;2022-11-11T08:29:19;6.25;;;4.07;;
3549;SDS011;45572;48.804;8.330;2022-11-11T08:32:07;7.88;;;4.55;;
3549;SDS011;45572;48.804;8.330;2022-11-11T08:34:56;8.05;;;4.78;;
3549;SDS011;45572;48.804;8.330;2022-11-11T08:37:44;7.88;;;3.55;;
3549;SDS011;45572;48.804;8.330;2022-11-11T08:40:32;6.55;;;5.07;;
3549;SDS011;45572;48.804;8.330;2022-11-11T08:43:21;5.90;;;4.40;;
3549;SDS011;45572;48.804;8.330;2022-11-11T08:46:12;7.32;;;4.47;;
3549;SDS011;45572;48.804;8.330;2022-11-11T08:49:00;5.55;;;5.05;;
3549;SDS011;45572;48.804;8.330;2022-11-11T08:51:47;5.07;;;3.13;;
3549;SDS011;45572;48.804;8.330;2022-11-11T08:54:35;7.13;;;3.58;;
3549;SDS011;45572;48.804;8.330;2022-11-11T08:57:23;5.35;;;3.55;;
3549;SDS011;45572;48.804;8.330;2022-11-11T09:00:12;10.40;;;3.45;;
3549;SDS011;45572;48.804;8.330;2022-11-11T09:03:02;11.05;;;3.60;;
3549;SDS011;45572;48.804;8.330;2022-11-11T09:05:51;3.65;;;2.75;;
3549;SDS011;45572;48.804;8.330;2022-11-11T09:08:42;5.82;;;3.63;;
3549;SDS011;45572;48.804;8.330;2022-11-11T09:11:30;4.25;;;2.42;;
3549;SDS011;45572;48.804;8.330;2022-11-11T09:14:21;3.70;;;3.00;;
3549;SDS011;45572;48.804;8.330;2022-11-11T09:17:10;3.85;;;2.78;;
3549;SDS011;45572;48.804;8.330;2022-11-11T09:19:58;3.33;;;2.83;;
3549;SDS011;45572;48.804;8.330;2022-11-11T09:22:46;3.33;;;2.90;;
3549;SDS011;45572;48.804;8.330;2022-11-11T09:25:35;4.75;;;2.35;;
3549;SDS011;45572;48.804;8.330;2022-11-11T09:28:23;3.55;;;3.25;;
3549;SDS011;45572;48.804;8.330;2022-11-11T09:31:15;4.53;;;2.90;;
3549;SDS011;45572;48.804;8.330;2022-11-11T09:34:24;4.55;;;3.85;;
3549;SDS011;45572;48.804;8.330;2022-11-11T09:37:12;4.60;;;3.13;;
3549;SDS011;45572;48.804;8.330;2022-11-11T09:40:00;5.05;;;3.58;;
3549;SDS011;45572;48.804;8.330;2022-11-11T09:42:49;6.22;;;4.35;;
3549;SDS011;45572;48.804;8.330;2022-11-11T09:45:48;6.75;;;4.35;;
3549;SDS011;45572;48.804;8.330;2022-11-11T09:48:50;9.98;;;4.82;;
3549;SDS011;45572;48.804;8.330;2022-11-11T09:51:47;4.85;;;3.92;;
3549;SDS011;45572;48.804;8.330;2022-11-11T09:54:42;7.10;;;4.38;;
3549;SDS011;45572;48.804;8.330;2022-11-11T09:57:34;7.40;;;3.50;;
3549;SDS011;45572;48.804;8.330;2022-11-11T10:00:27;7.13;;;3.60;;
3549;SDS011;45572;48.804;8.330;2022-11-11T10:03:18;6.57;;;3.80;;
3549;SDS011;45572;48.804;8.330;2022-11-11T10:06:08;6.35;;;3.88;;
3549;SDS011;45572;48.804;8.330;2022-11-11T10:09:13;5.90;;;4.40;;
3549;SDS011;45572;48.804;8.330;2022-11-11T10:12:10;6.43;;;3.78;;
3549;SDS011;45572;48.804;8.330;2022-11-11T10:14:59;7.38;;;3.83;;
3549;SDS011;45572;48.804;8.330;2022-11-11T10:17:54;5.15;;;3.13;;
3549;SDS011;45572;48.804;8.330;2022-11-11T10:20:51;5.80;;;4.10;;
3549;SDS011;45572;48.804;8.330;2022-11-11T10:23:43;5.00;;;3.40;;
3549;SDS011;45572;48.804;8.330;2022-11-11T10:26:36;9.32;;;4.38;;
3549;SDS011;45572;48.804;8.330;2022-11-11T10:29:27;6.72;;;5.53;;
3549;SDS011;45572;48.804;8.330;2022-11-11T10:32:22;8.73;;;4.65;;
3549;SDS011;45572;48.804;8.330;2022-11-11T10:35:14;8.60;;;4.97;;
3549;SDS011;45572;48.804;8.330;2022-11-11T10:38:10;5.63;;;4.20;;
3549;SDS011;45572;48.804;8.330;2022-11-11T10:41:10;8.30;;;5.00;;
3549;SDS011;45572;48.804;8.330;2022-11-11T10:44:18;7.75;;;4.57;;
3549;SDS011;45572;48.804;8.330;2022-11-11T10:47:08;6.45;;;4.53;;
3549;SDS011;45572;48.804;8.330;2022-11-11T10:50:03;12.38;;;5.32;;
3549;SDS011;45572;48.804;8.330;2022-11-11T10:52:58;8.20;;;5.63;;
3549;SDS011;45572;48.804;8.330;2022-11-11T10:55:52;9.25;;;5.68;;
3549;SDS011;45572;48.804;8.330;2022-11-11T10:58:47;10.73;;;6.95;;
3549;SDS011;45572;48.804;8.330;2022-11-11T11:01:41;9.80;;;7.00;;
3549;SDS011;45572;48.804;8.330;2022-11-11T11:04:35;8.27;;;5.55;;
3549;SDS011;45572;48.804;8.330;2022-11-11T11:07:28;9.15;;;5.63;;
3549;SDS011;45572;48.804;8.330;2022-11-11T11:10:23;8.00;;;5.55;;
3549;SDS011;45572;48.804;8.330;2022-11-11T11:13:18;8.95;;;6.28;;
3549;SDS011;45572;48.804;8.330;2022-11-11T11:16:13;9.18;;;6.57;;
3549;SDS011;45572;48.804;8.330;2022-11-11T11:19:15;9.15;;;6.65;;
3549;SDS011;45572;48.804;8.330;2022-11-11T11:22:04;8.35;;;5.47;;
3549;SDS011;45572;48.804;8.330;2022-11-11T11:24:51;9.85;;;6.47;;
3549;SDS011;45572;48.804;8.330;2022-11-11T11:28:04;10.27;;;6.13;;
3549;SDS011;45572;48.804;8.330;2022-11-11T11:30:58;11.15;;;6.70;;
3549;SDS011;45572;48.804;8.330;2022-11-11T11:33:52;10.82;;;6.45;;
3549;SDS011;45572;48.804;8.330;2022-11-11T11:36:42;12.45;;;7.00;;
3549;SDS011;45572;48.804;8.330;2022-11-11T11:39:31;11.15;;;5.85;;
3549;SDS011;45572;48.804;8.330;2022-11-11T11:42:28;8.32;;;6.53;;
3549;SDS011;45572;48.804;8.330;2022-11-11T11:45:21;8.15;;;6.15;;
3549;SDS011;45572;48.804;8.330;2022-11-11T11:48:15;10.80;;;7.00;;
3549;SDS011;45572;48.804;8.330;2022-11-11T11:51:19;9.63;;;7.15;;
3549;SDS011;45572;48.804;8.330;2022-11-11T11:54:20;6.80;;;4.82;;
3549;SDS011;45572;48.804;8.330;2022-11-11T11:57:19;7.72;;;5.60;;
3549;SDS011;45572;48.804;8.330;2022-11-11T12:00:18;8.65;;;5.68;;
3549;SDS011;45572;48.804;8.330;2022-11-11T12:03:13;7.57;;;5.28;;
3549;SDS011;45572;48.804;8.330;2022-11-11T12:06:15;10.25;;;5.90;;
3549;SDS011;45572;48.804;8.330;2022-11-11T12:09:10;9.02;;;6.50;;
3549;SDS011;45572;48.804;8.330;2022-11-11T12:12:09;11.15;;;7.97;;
3549;SDS011;45572;48.804;8.330;2022-11-11T12:15:12;8.15;;;5.80;;
3549;SDS011;45572;48.804;8.330;2022-11-11T12:18:15;10.70;;;7.50;;
3549;SDS011;45572;48.804;8.330;2022-11-11T12:21:17;12.68;;;6.80;;
3549;SDS011;45572;48.804;8.330;2022-11-11T12:24:12;14.20;;;8.00;;
3549;SDS011;45572;48.804;8.330;2022-11-11T12:27:16;13.95;;;7.70;;
3549;SDS011;45572;48.804;8.330;2022-11-11T12:30:11;13.45;;;9.63;;
3549;SDS011;45572;48.804;8.330;2022-11-11T12:33:05;15.38;;;9.32;;
3549;SDS011;45572;48.804;8.330;2022-11-11T12:36:07;16.00;;;9.35;;
3549;SDS011;45572;48.804;8.330;2022-11-11T12:39:01;15.65;;;9.38;;
3549;SDS011;45572;48.804;8.330;2022-11-11T12:41:56;17.00;;;10.60;;
3549;SDS011;45572;48.804;8.330;2022-11-11T12:44:56;16.23;;;9.50;;
3549;SDS011;45572;48.804;8.330;2022-11-11T12:47:54;20.90;;;11.15;;
3549;SDS011;45572;48.804;8.330;2022-11-11T12:50:52;15.40;;;10.10;;
3549;SDS011;45572;48.804;8.330;2022-11-11T12:53:52;16.95;;;10.70;;
3549;SDS011;45572;48.804;8.330;2022-11-11T12:56:47;15.45;;;10.27;;
3549;SDS011;45572;48.804;8.330;2022-11-11T12:59:49;19.80;;;10.27;;
3549;SDS011;45572;48.804;8.330;2022-11-11T13:02:57;16.33;;;10.23;;
3549;SDS011;45572;48.804;8.330;2022-11-11T13:05:55;21.25;;;10.35;;
3549;SDS011;45572;48.804;8.330;2022-11-11T13:08:54;19.00;;;10.27;;
3549;SDS011;45572;48.804;8.330;2022-11-11T13:12:01;17.85;;;10.75;;
3549;SDS011;45572;48.804;8.330;2022-11-11T13:14:56;20.40;;;10.77;;
3549;SDS011;45572;48.804;8.330;2022-11-11T13:17:50;19.95;;;11.35;;
3549;SDS011;45572;48.804;8.330;2022-11-11T13:20:40;18.58;;;10.60;;
3549;SDS011;45572;48.804;8.330;2022-11-11T13:23:32;15.63;;;10.02;;
3549;SDS011;45572;48.804;8.330;2022-11-11T13:26:23;17.42;;;10.60;;
3549;SDS011;45572;48.804;8.330;2022-11-11T13:29:19;20.25;;;10.70;;
3549;SDS011;45572;48.804;8.330;2022-11-11T13:32:25;17.98;;;10.90;;
3549;SDS011;45572;48.804;8.330;2022-11-11T13:35:19;18.00;;;10.82;;
3549;SDS011;45572;48.804;8.330;2022-11-11T13:38:21;21.40;;;11.30;;
3549;SDS011;45572;48.804;8.330;2022-11-11T13:41:12;14.25;;;9.90;;
3549;SDS011;45572;48.804;8.330;2022-11-11T13:44:08;15.65;;;9.68;;
3549;SDS011;45572;48.804;8.330;2022-11-11T13:47:06;14.90;;;10.40;;
3549;SDS011;45572;48.804;8.330;2022-11-11T13:50:03;14.80;;;10.18;;
3549;SDS011;45572;48.804;8.330;2022-11-11T13:52:54;17.38;;;10.88;;
3549;SDS011;45572;48.804;8.330;2022-11-11T13:55:45;18.95;;;11.50;;
3549;SDS011;45572;48.804;8.330;2022-11-11T13:58:34;21.77;;;11.40;;
3549;SDS011;45572;48.804;8.330;2022-11-11T14:01:23;19.33;;;12.65;;
3549;SDS011;45572;48.804;8.330;2022-11-11T14:04:27;18.38;;;10.60;;
3549;SDS011;45572;48.804;8.330;2022-11-11T14:10:43;24.52;;;12.55;;
3549;SDS011;45572;48.804;8.330;2022-11-11T14:13:40;26.27;;;12.45;;
3549;SDS011;45572;48.804;8.330;2022-11-11T14:19:45;20.05;;;12.18;;
3549;SDS011;45572;48.804;8.330;2022-11-11T14:22:33;23.65;;;14.82;;
3549;SDS011;45572;48.804;8.330;2022-11-11T14:25:22;21.02;;;12.98;;
3549;SDS011;45572;48.804;8.330;2022-11-11T14:28:21;26.15;;;12.13;;
3549;SDS011;45572;48.804;8.330;2022-11-11T14:34:42;21.35;;;12.80;;
3549;SDS011;45572;48.804;8.330;2022-11-11T14:37:53;19.67;;;13.10;;
3549;SDS011;45572;48.804;8.330;2022-11-11T14:40:49;20.85;;;13.65;;
3549;SDS011;45572;48.804;8.330;2022-11-11T14:43:38;20.85;;;12.93;;
3549;SDS011;45572;48.804;8.330;2022-11-11T14:46:26;20.20;;;12.38;;
3549;SDS011;45572;48.804;8.330;2022-11-11T14:52:33;19.90;;;10.55;;
3549;SDS011;45572;48.804;8.330;2022-11-11T14:55:22;21.27;;;12.02;;
3549;SDS011;45572;48.804;8.330;2022-11-11T14:58:13;18.35;;;11.23;;
3549;SDS011;45572;48.804;8.330;2022-11-11T15:01:11;21.60;;;12.48;;
3549;SDS011;45572;48.804;8.330;2022-11-11T15:04:02;21.50;;;13.10;;
3549;SDS011;45572;48.804;8.330;2022-11-11T15:06:51;21.33;;;13.40;;
3549;SDS011;45572;48.804;8.330;2022-11-11T15:09:47;23.73;;;13.18;;
3549;SDS011;45572;48.804;8.330;2022-11-11T15:12:46;23.08;;;12.90;;
3549;SDS011;45572;48.804;8.330;2022-11-11T15:15:47;23.67;;;13.00;;
3549;SDS011;45572;48.804;8.330;2022-11-11T15:18:46;26.08;;;14.85;;
3549;SDS011;45572;48.804;8.330;2022-11-11T15:21:53;21.27;;;11.30;;
3549;SDS011;45572;48.804;8.330;2022-11-11T15:24:49;27.05;;;13.75;;
3549;SDS011;45572;48.804;8.330;2022-11-11T15:27:47;28.15;;;14.68;;
3549;SDS011;45572;48.804;8.330;2022-11-11T15:30:44;27.75;;;19.55;;
3549;SDS011;45572;48.804;8.330;2022-11-11T15:33:42;23.20;;;13.25;;
3549;SDS011;45572;48.804;8.330;2022-11-11T15:36:42;25.00;;;13.25;;
3549;SDS011;45572;48.804;8.330;2022-11-11T15:39:38;23.77;;;13.25;;
3549;SDS011;45572;48.804;8.330;2022-11-11T15:42:28;21.60;;;11.82;;
3549;SDS011;45572;48.804;8.330;2022-11-11T15:45:20;19.70;;;12.48;;
3549;SDS011;45572;48.804;8.330;2022-11-11T15:48:18;21.92;;;12.32;;
3549;SDS011;45572;48.804;8.330;2022-11-11T15:51:15;18.52;;;12.05;;
3549;SDS011;45572;48.804;8.330;2022-11-11T15:54:08;27.33;;;14.43;;
3549;SDS011;45572;48.804;8.330;2022-11-11T15:57:14;22.70;;;13.02;;
3549;SDS011;45572;48.804;8.330;2022-11-11T16:00:22;22.35;;;12.60;;
3549;SDS011;45572;48.804;8.330;2022-11-11T16:03:15;21.73;;;12.98;;
3549;SDS011;45572;48.804;8.330;2022-11-11T16:06:05;23.33;;;12.82;;
3549;SDS011;45572;48.804;8.330;2022-11-11T16:08:57;26.58;;;13.40;;
3549;SDS011;45572;48.804;8.330;2022-11-11T16:11:44;22.33;;;13.05;;
3549;SDS011;45572;48.804;8.330;2022-11-11T16:14:33;21.50;;;11.95;;
3549;SDS011;45572;48.804;8.330;2022-11-11T16:17:27;22.27;;;12.40;;
3549;SDS011;45572;48.804;8.330;2022-11-11T16:20:20;23.15;;;12.30;;
3549;SDS011;45572;48.804;8.330;2022-11-11T16:23:12;22.55;;;11.43;;
3549;SDS011;45572;48.804;8.330;2022-11-11T16:26:04;17.15;;;10.95;;
3549;SDS011;45572;48.804;8.330;2022-11-11T16:28:53;24.00;;;12.00;;
3549;SDS011;45572;48.804;8.330;2022-11-11T16:31:43;22.67;;;11.95;;
3549;SDS011;45572;48.804;8.330;2022-11-11T16:34:41;19.58;;;11.25;;
3549;SDS011;45572;48.804;8.330;2022-11-11T16:37:41;30.02;;;12.95;;
3549;SDS011;45572;48.804;8.330;2022-11-11T16:40:40;24.23;;;13.30;;
3549;SDS011;45572;48.804;8.330;2022-11-11T16:43:31;22.55;;;12.30;;
3549;SDS011;45572;48.804;8.330;2022-11-11T16:49:27;24.73;;;14.43;;
3549;SDS011;45572;48.804;8.330;2022-11-11T16:52:17;26.75;;;15.63;;
3549;SDS011;45572;48.804;8.330;2022-11-11T16:55:08;22.92;;;13.80;;
3549;SDS011;45572;48.804;8.330;2022-11-11T16:57:57;31.80;;;15.93;;
3549;SDS011;45572;48.804;8.330;2022-11-11T17:00:49;23.55;;;13.10;;
3549;SDS011;45572;48.804;8.330;2022-11-11T17:03:51;34.67;;;15.20;;
3549;SDS011;45572;48.804;8.330;2022-11-11T17:06:44;40.22;;;17.55;;
3549;SDS011;45572;48.804;8.330;2022-11-11T17:09:36;48.53;;;15.75;;
3549;SDS011;45572;48.804;8.330;2022-11-11T17:12:28;34.58;;;14.95;;
3549;SDS011;45572;48.804;8.330;2022-11-11T17:15:18;31.27;;;14.65;;
3549;SDS011;45572;48.804;8.330;2022-11-11T17:18:08;34.67;;;13.82;;
3549;SDS011;45572;48.804;8.330;2022-11-11T17:20:58;24.48;;;12.48;;
3549;SDS011;45572;48.804;8.330;2022-11-11T17:23:47;31.27;;;14.68;;
3549;SDS011;45572;48.804;8.330;2022-11-11T17:26:35;22.77;;;13.35;;
3549;SDS011;45572;48.804;8.330;2022-11-11T17:29:22;21.75;;;11.32;;
3549;SDS011;45572;48.804;8.330;2022-11-11T17:32:10;20.95;;;11.65;;
3549;SDS011;45572;48.804;8.330;2022-11-11T17:34:59;26.63;;;14.20;;
3549;SDS011;45572;48.804;8.330;2022-11-11T17:37:52;31.73;;;17.20;;
3549;SDS011;45572;48.804;8.330;2022-11-11T17:40:42;28.02;;;14.65;;
3549;SDS011;45572;48.804;8.330;2022-11-11T17:43:30;33.97;;;18.02;;
3549;SDS011;45572;48.804;8.330;2022-11-11T17:46:18;37.13;;;17.52;;
3549;SDS011;45572;48.804;8.330;2022-11-11T17:49:06;28.92;;;14.90;;